createdAt,value
2017-10-10T00:00:49.218Z,0
2017-10-10T00:01:50.289Z,0
2017-10-10T00:02:51.009Z,0
2017-10-10T00:03:51.848Z,0
2017-10-10T00:04:52.582Z,0
2017-10-10T00:05:53.420Z,0
2017-10-10T00:06:54.566Z,0
2017-10-10T00:07:55.299Z,0
2017-10-10T00:08:56.033Z,0
2017-10-10T00:09:56.817Z,0
2017-10-10T00:10:57.547Z,0
2017-10-10T00:11:58.444Z,0
2017-10-10T00:12:59.188Z,0
2017-10-10T00:13:59.968Z,0
2017-10-10T00:15:00.773Z,0
2017-10-10T00:16:01.578Z,0
2017-10-10T00:17:02.353Z,0
2017-10-10T00:18:03.141Z,0
2017-10-10T00:19:03.929Z,0
2017-10-10T00:20:04.657Z,0
2017-10-10T00:21:05.404Z,0
2017-10-10T00:22:06.648Z,0
2017-10-10T00:23:07.374Z,0
2017-10-10T00:24:08.115Z,0
2017-10-10T00:25:08.848Z,0
2017-10-10T00:26:09.584Z,0
2017-10-10T00:27:10.851Z,0
2017-10-10T00:28:11.657Z,0
2017-10-10T00:29:12.399Z,0
2017-10-10T00:30:13.240Z,0
2017-10-10T00:31:14.041Z,0
2017-10-10T00:32:14.887Z,0
2017-10-10T00:33:15.611Z,0
2017-10-10T00:34:16.347Z,0
2017-10-10T00:35:17.088Z,0
2017-10-10T00:36:17.818Z,0
2017-10-10T00:37:18.677Z,0
2017-10-10T00:38:19.410Z,0
2017-10-10T00:39:20.209Z,0
2017-10-10T00:40:20.951Z,0
2017-10-10T00:41:21.759Z,0
2017-10-10T00:42:22.818Z,0
2017-10-10T00:43:23.567Z,0
2017-10-10T00:44:24.350Z,0
2017-10-10T00:45:25.159Z,0
2017-10-10T00:46:25.896Z,0
2017-10-10T00:47:27.017Z,0
2017-10-10T00:48:27.747Z,0
2017-10-10T00:49:28.477Z,0
2017-10-10T00:50:29.278Z,0
2017-10-10T00:51:30.010Z,0
2017-10-10T00:52:31.063Z,0
2017-10-10T00:53:31.789Z,0
2017-10-10T00:54:32.531Z,0
2017-10-10T00:55:33.337Z,0
2017-10-10T00:56:34.119Z,0
2017-10-10T00:57:34.909Z,0
2017-10-10T00:58:35.691Z,0
2017-10-10T00:59:36.428Z,0
2017-10-10T01:00:37.564Z,0
2017-10-10T01:01:38.293Z,0
2017-10-10T01:02:39.075Z,0
2017-10-10T01:03:39.838Z,0
2017-10-10T01:04:40.574Z,0
2017-10-10T01:05:41.399Z,0
2017-10-10T01:06:42.141Z,0
2017-10-10T01:07:42.950Z,0
2017-10-10T01:08:43.760Z,0
2017-10-10T01:09:44.496Z,0
2017-10-10T01:10:45.615Z,0
2017-10-10T01:11:46.362Z,0
2017-10-10T01:12:47.131Z,0
2017-10-10T01:13:47.930Z,0
2017-10-10T01:14:48.660Z,0
2017-10-10T01:15:49.783Z,0
2017-10-10T01:16:50.553Z,0
2017-10-10T01:17:51.360Z,0
2017-10-10T01:18:52.089Z,0
2017-10-10T01:19:52.836Z,0
2017-10-10T01:20:53.712Z,0
2017-10-10T01:21:54.450Z,0
2017-10-10T01:22:55.184Z,0
2017-10-10T01:23:55.970Z,0
2017-10-10T01:24:56.697Z,0
2017-10-10T01:25:57.591Z,0
2017-10-10T01:26:58.402Z,0
2017-10-10T01:27:59.132Z,0
2017-10-10T01:28:59.955Z,0
2017-10-10T01:30:00.692Z,0
2017-10-10T01:31:01.829Z,0
2017-10-10T01:32:02.570Z,0
2017-10-10T01:33:03.302Z,0
2017-10-10T01:34:04.045Z,0
2017-10-10T01:35:04.845Z,0
2017-10-10T01:36:05.629Z,0
2017-10-10T01:37:06.390Z,0
2017-10-10T01:38:07.113Z,0
2017-10-10T01:39:07.939Z,0
2017-10-10T01:40:08.734Z,0
2017-10-10T01:41:09.506Z,0
2017-10-10T01:42:10.296Z,0
2017-10-10T01:43:11.030Z,0
2017-10-10T01:44:11.710Z,0
2017-10-10T01:45:12.444Z,0
2017-10-10T01:46:13.230Z,0
2017-10-10T01:47:13.961Z,0
2017-10-10T01:48:14.691Z,0
2017-10-10T01:49:15.500Z,0
2017-10-10T01:50:16.322Z,0
2017-10-10T01:51:17.473Z,0
2017-10-10T01:52:18.271Z,0
2017-10-10T01:53:19.107Z,0
2017-10-10T01:54:19.763Z,0
2017-10-10T01:55:20.565Z,0
2017-10-10T01:56:21.650Z,0
2017-10-10T01:57:22.443Z,0
2017-10-10T01:58:23.243Z,0
2017-10-10T01:59:24.059Z,0
2017-10-10T02:00:24.866Z,0
2017-10-10T02:01:25.991Z,0
2017-10-10T02:02:26.723Z,0
2017-10-10T02:03:27.463Z,0
2017-10-10T02:04:28.259Z,0
2017-10-10T02:05:29.041Z,0
2017-10-10T02:06:29.866Z,0
2017-10-10T02:07:30.680Z,0
2017-10-10T02:08:31.412Z,0
2017-10-10T02:09:32.141Z,0
2017-10-10T02:10:32.945Z,0
2017-10-10T02:11:34.090Z,0
2017-10-10T02:12:34.825Z,0
2017-10-10T02:13:35.552Z,0
2017-10-10T02:14:36.364Z,0
2017-10-10T02:15:37.166Z,0
2017-10-10T02:16:38.248Z,0
2017-10-10T02:17:38.979Z,0
2017-10-10T02:18:39.713Z,0
2017-10-10T02:19:40.449Z,0
2017-10-10T02:20:41.239Z,0
2017-10-10T02:21:42.409Z,0
2017-10-10T02:22:43.145Z,0
2017-10-10T02:23:43.886Z,0
2017-10-10T02:24:44.678Z,0
2017-10-10T02:25:45.406Z,0
2017-10-10T02:26:46.558Z,0
2017-10-10T02:27:47.347Z,0
2017-10-10T02:28:48.125Z,0
2017-10-10T02:29:48.927Z,0
2017-10-10T02:30:49.654Z,0
2017-10-10T02:31:50.754Z,0
2017-10-10T02:32:51.523Z,0
2017-10-10T02:33:52.250Z,0
2017-10-10T02:34:52.982Z,0
2017-10-10T02:35:53.730Z,0
2017-10-10T02:36:54.824Z,0
2017-10-10T02:37:55.587Z,0
2017-10-10T02:38:56.365Z,0
2017-10-10T02:39:57.161Z,0
2017-10-10T02:40:57.961Z,0
2017-10-10T02:41:59.078Z,0
2017-10-10T02:42:59.845Z,0
2017-10-10T02:44:00.664Z,0
2017-10-10T02:45:01.432Z,0
2017-10-10T02:46:02.203Z,0
2017-10-10T02:47:02.981Z,0
2017-10-10T02:48:03.711Z,0
2017-10-10T02:49:04.439Z,0
2017-10-10T02:50:05.169Z,0
2017-10-10T02:51:05.902Z,0
2017-10-10T02:52:07.065Z,0
2017-10-10T02:53:07.883Z,0
2017-10-10T02:54:08.681Z,0
2017-10-10T02:55:09.486Z,0
2017-10-10T02:56:10.261Z,0
2017-10-10T02:57:11.014Z,0
2017-10-10T02:58:11.898Z,0
2017-10-10T02:59:12.630Z,0
2017-10-10T03:00:13.442Z,0
2017-10-10T03:01:14.175Z,0
2017-10-10T03:02:14.898Z,0
2017-10-10T03:03:15.933Z,0
2017-10-10T03:04:16.739Z,0
2017-10-10T03:05:17.525Z,0
2017-10-10T03:06:18.339Z,0
2017-10-10T03:07:19.007Z,0
2017-10-10T03:08:19.793Z,0
2017-10-10T03:09:20.606Z,0
2017-10-10T03:10:21.401Z,0
2017-10-10T03:11:22.168Z,0
2017-10-10T03:12:22.907Z,0
2017-10-10T03:13:24.016Z,0
2017-10-10T03:14:24.806Z,0
2017-10-10T03:15:25.482Z,0
2017-10-10T03:16:26.213Z,0
2017-10-10T03:17:27.022Z,0
2017-10-10T03:18:28.122Z,0
2017-10-10T03:19:28.851Z,0
2017-10-10T03:20:29.602Z,0
2017-10-10T03:21:30.333Z,0
2017-10-10T03:22:31.138Z,0
2017-10-10T03:23:32.273Z,0
2017-10-10T03:24:33.013Z,0
2017-10-10T03:25:33.807Z,0
2017-10-10T03:26:34.521Z,0
2017-10-10T03:27:35.248Z,0
2017-10-10T03:28:36.285Z,0
2017-10-10T03:29:37.024Z,0
2017-10-10T03:30:37.809Z,0
2017-10-10T03:31:38.606Z,0
2017-10-10T03:32:39.411Z,0
2017-10-10T03:33:40.191Z,0
2017-10-10T03:34:40.930Z,0
2017-10-10T03:35:41.650Z,0
2017-10-10T03:36:42.467Z,0
2017-10-10T03:37:43.259Z,0
2017-10-10T03:38:44.004Z,0
2017-10-10T03:39:44.739Z,0
2017-10-10T03:40:45.484Z,0
2017-10-10T03:41:46.387Z,0
2017-10-10T03:42:47.150Z,0
2017-10-10T03:43:47.959Z,0
2017-10-10T03:44:48.755Z,0
2017-10-10T03:45:49.497Z,0
2017-10-10T03:46:50.331Z,0
2017-10-10T03:47:51.142Z,0
2017-10-10T03:48:51.864Z,0
2017-10-10T03:49:52.650Z,0
2017-10-10T03:50:53.405Z,0
2017-10-10T03:51:54.489Z,0
2017-10-10T03:52:55.225Z,0
2017-10-10T03:53:56.009Z,0
2017-10-10T03:54:56.734Z,0
2017-10-10T03:55:57.472Z,0
2017-10-10T03:56:58.500Z,0
2017-10-10T03:57:59.263Z,0
2017-10-10T03:59:00.077Z,0
2017-10-10T04:00:00.819Z,0
2017-10-10T04:01:01.618Z,0
2017-10-10T04:02:02.355Z,0
2017-10-10T04:03:03.448Z,0
2017-10-10T04:04:04.167Z,0
2017-10-10T04:05:04.909Z,0
2017-10-10T04:06:05.639Z,0
2017-10-10T04:07:06.443Z,0
2017-10-10T04:08:07.576Z,0
2017-10-10T04:09:08.383Z,0
2017-10-10T04:10:09.149Z,0
2017-10-10T04:11:09.961Z,0
2017-10-10T04:12:10.753Z,0
2017-10-10T04:13:11.573Z,0
2017-10-10T04:14:12.380Z,0
2017-10-10T04:15:13.408Z,0
2017-10-10T04:16:14.134Z,0
2017-10-10T04:17:14.870Z,0
2017-10-10T04:18:15.670Z,0
2017-10-10T04:19:16.481Z,0
2017-10-10T04:20:17.508Z,0
2017-10-10T04:21:18.235Z,0
2017-10-10T04:22:19.033Z,0
2017-10-10T04:23:19.765Z,0
2017-10-10T04:24:20.486Z,0
2017-10-10T04:25:21.521Z,0
2017-10-10T04:26:22.249Z,0
2017-10-10T04:27:22.976Z,0
2017-10-10T04:28:23.715Z,0
2017-10-10T04:29:24.468Z,0
2017-10-10T04:30:25.898Z,0
2017-10-10T04:31:26.627Z,0
2017-10-10T04:32:27.361Z,0
2017-10-10T04:33:28.091Z,0
2017-10-10T04:34:28.826Z,0
2017-10-10T04:35:29.858Z,0
2017-10-10T04:36:30.666Z,0
2017-10-10T04:37:31.389Z,0
2017-10-10T04:38:32.112Z,0
2017-10-10T04:39:32.828Z,0
2017-10-10T04:40:33.912Z,0
2017-10-10T04:41:34.636Z,0
2017-10-10T04:42:35.370Z,0
2017-10-10T04:43:36.101Z,0
2017-10-10T04:44:36.915Z,0
2017-10-10T04:45:37.710Z,0
2017-10-10T04:46:38.479Z,0
2017-10-10T04:47:39.202Z,0
2017-10-10T04:48:39.930Z,0
2017-10-10T04:49:40.650Z,0
2017-10-10T04:50:41.850Z,0
2017-10-10T04:51:42.579Z,0
2017-10-10T04:52:43.324Z,0
2017-10-10T04:53:44.056Z,0
2017-10-10T04:54:44.856Z,0
2017-10-10T04:55:45.943Z,0
2017-10-10T04:56:46.701Z,0
2017-10-10T04:57:47.445Z,0
2017-10-10T04:58:48.254Z,0
2017-10-10T04:59:49.051Z,0
2017-10-10T05:00:49.896Z,0
2017-10-10T05:01:50.619Z,0
2017-10-10T05:02:51.346Z,0
2017-10-10T05:03:52.085Z,0
2017-10-10T05:04:52.851Z,0
2017-10-10T05:05:53.880Z,0
2017-10-10T05:06:54.607Z,0
2017-10-10T05:07:55.351Z,0
2017-10-10T05:08:56.102Z,0
2017-10-10T05:09:56.899Z,0
2017-10-10T05:10:57.978Z,0
2017-10-10T05:11:58.786Z,0
2017-10-10T05:12:59.528Z,4
2017-10-10T05:14:00.320Z,4
2017-10-10T05:15:01.160Z,0
2017-10-10T05:16:01.950Z,4
2017-10-10T05:17:02.681Z,8
2017-10-10T05:18:03.458Z,8
2017-10-10T05:19:04.191Z,8
2017-10-10T05:20:04.998Z,8
2017-10-10T05:21:05.862Z,12
2017-10-10T05:22:06.679Z,16
2017-10-10T05:23:07.452Z,12
2017-10-10T05:24:08.252Z,16
2017-10-10T05:25:08.990Z,20
2017-10-10T05:26:10.123Z,20
2017-10-10T05:27:10.850Z,28
2017-10-10T05:28:11.579Z,28
2017-10-10T05:29:12.360Z,32
2017-10-10T05:30:13.091Z,32
2017-10-10T05:31:14.130Z,36
2017-10-10T05:32:14.862Z,44
2017-10-10T05:33:15.601Z,48
2017-10-10T05:34:16.327Z,52
2017-10-10T05:35:17.058Z,60
2017-10-10T05:36:18.576Z,76
2017-10-10T05:37:19.354Z,76
2017-10-10T05:38:20.153Z,68
2017-10-10T05:39:20.933Z,72
2017-10-10T05:40:21.666Z,100
2017-10-10T05:41:22.473Z,124
2017-10-10T05:42:23.247Z,136
2017-10-10T05:43:23.994Z,152
2017-10-10T05:44:24.782Z,128
2017-10-10T05:45:25.509Z,128
2017-10-10T05:46:26.420Z,148
2017-10-10T05:47:27.149Z,180
2017-10-10T05:48:27.970Z,236
2017-10-10T05:49:28.702Z,292
2017-10-10T05:50:29.431Z,276
2017-10-10T05:51:30.565Z,312
2017-10-10T05:52:31.366Z,308
2017-10-10T05:53:32.094Z,328
2017-10-10T05:54:32.903Z,320
2017-10-10T05:55:33.700Z,340
2017-10-10T05:56:34.858Z,384
2017-10-10T05:57:35.632Z,420
2017-10-10T05:58:36.373Z,520
2017-10-10T05:59:37.102Z,548
2017-10-10T06:00:37.948Z,620
2017-10-10T06:01:39.061Z,592
2017-10-10T06:02:39.803Z,568
2017-10-10T06:03:40.527Z,588
2017-10-10T06:04:41.263Z,492
2017-10-10T06:05:42.071Z,400
2017-10-10T06:06:42.868Z,328
2017-10-10T06:07:43.576Z,280
2017-10-10T06:08:44.361Z,252
2017-10-10T06:09:45.089Z,284
2017-10-10T06:10:45.913Z,424
2017-10-10T06:11:47.006Z,700
2017-10-10T06:12:47.772Z,812
2017-10-10T06:13:48.533Z,980
2017-10-10T06:14:49.303Z,1160
2017-10-10T06:15:50.042Z,1048
2017-10-10T06:16:50.801Z,1172
2017-10-10T06:17:51.870Z,1140
2017-10-10T06:18:52.606Z,1280
2017-10-10T06:19:53.355Z,1244
2017-10-10T06:20:54.090Z,1228
2017-10-10T06:21:54.893Z,1180
2017-10-10T06:22:56.058Z,1232
2017-10-10T06:23:56.798Z,1132
2017-10-10T06:24:57.548Z,1056
2017-10-10T06:25:58.278Z,1056
2017-10-10T06:26:59.014Z,1076
2017-10-10T06:28:00.125Z,1172
2017-10-10T06:29:00.939Z,1200
2017-10-10T06:30:01.661Z,1284
2017-10-10T06:31:02.483Z,1380
2017-10-10T06:32:03.221Z,960
2017-10-10T06:33:04.290Z,720
2017-10-10T06:34:05.012Z,784
2017-10-10T06:35:05.738Z,872
2017-10-10T06:36:06.507Z,900
2017-10-10T06:37:07.318Z,760
2017-10-10T06:38:08.426Z,736
2017-10-10T06:39:10.443Z,740
2017-10-10T06:40:12.521Z,668
2017-10-10T06:41:14.519Z,560
2017-10-10T06:42:16.617Z,596
2017-10-10T06:43:17.600Z,576
2017-10-10T06:44:18.423Z,692
2017-10-10T06:45:19.568Z,756
2017-10-10T06:46:20.345Z,820
2017-10-10T06:47:21.086Z,860
2017-10-10T06:48:21.894Z,1068
2017-10-10T06:49:22.630Z,1132
2017-10-10T06:50:23.685Z,1228
2017-10-10T06:51:24.515Z,1444
2017-10-10T06:52:25.248Z,1580
2017-10-10T06:53:26.041Z,1652
2017-10-10T06:54:26.773Z,1772
2017-10-10T06:55:27.901Z,1736
2017-10-10T06:56:28.708Z,1712
2017-10-10T06:57:29.545Z,2216
2017-10-10T06:58:30.275Z,1664
2017-10-10T06:59:31.080Z,1368
2017-10-10T07:00:32.116Z,1112
2017-10-10T07:01:32.858Z,916
2017-10-10T07:02:33.639Z,960
2017-10-10T07:03:34.375Z,940
2017-10-10T07:04:35.114Z,900
2017-10-10T07:05:36.225Z,972
2017-10-10T07:06:36.966Z,1308
2017-10-10T07:07:37.782Z,1288
2017-10-10T07:08:38.526Z,1108
2017-10-10T07:09:39.256Z,1168
2017-10-10T07:10:40.386Z,1388
2017-10-10T07:11:41.119Z,1668
2017-10-10T07:12:41.870Z,2136
2017-10-10T07:13:42.675Z,2380
2017-10-10T07:14:43.409Z,2268
2017-10-10T07:15:44.472Z,2056
2017-10-10T07:16:45.216Z,1812
2017-10-10T07:17:45.943Z,2424
2017-10-10T07:18:46.674Z,2436
2017-10-10T07:19:47.416Z,2044
2017-10-10T07:20:48.585Z,2100
2017-10-10T07:21:49.322Z,1648
2017-10-10T07:22:50.076Z,1708
2017-10-10T07:23:50.794Z,1352
2017-10-10T07:24:51.530Z,1292
2017-10-10T07:25:52.662Z,944
2017-10-10T07:26:53.469Z,944
2017-10-10T07:27:54.206Z,840
2017-10-10T07:28:54.965Z,868
2017-10-10T07:29:55.693Z,692
2017-10-10T07:30:56.783Z,732
2017-10-10T07:31:57.569Z,872
2017-10-10T07:32:58.414Z,1160
2017-10-10T07:33:59.203Z,1068
2017-10-10T07:34:59.992Z,1220
2017-10-10T07:36:00.795Z,1204
2017-10-10T07:37:01.525Z,1240
2017-10-10T07:38:02.298Z,1288
2017-10-10T07:39:03.020Z,1396
2017-10-10T07:40:03.764Z,1560
2017-10-10T07:41:04.954Z,1204
2017-10-10T07:42:05.699Z,1180
2017-10-10T07:43:06.464Z,1600
2017-10-10T07:44:07.193Z,1780
2017-10-10T07:45:07.923Z,1808
2017-10-10T07:46:08.658Z,1736
2017-10-10T07:47:09.420Z,1660
2017-10-10T07:48:10.206Z,1608
2017-10-10T07:49:10.946Z,1840
2017-10-10T07:50:11.692Z,1888
2017-10-10T07:51:12.434Z,1932
2017-10-10T07:52:13.158Z,1896
2017-10-10T07:53:14.349Z,2544
2017-10-10T07:54:15.088Z,2688
2017-10-10T07:55:15.818Z,2540
2017-10-10T07:56:16.536Z,2776
2017-10-10T07:57:17.281Z,3252
2017-10-10T07:58:18.111Z,3392
2017-10-10T07:59:18.868Z,3928
2017-10-10T08:00:19.616Z,3876
2017-10-10T08:01:20.347Z,3868
2017-10-10T08:02:21.086Z,4548
2017-10-10T08:03:22.132Z,4292
2017-10-10T08:04:22.903Z,4888
2017-10-10T08:05:23.747Z,4428
2017-10-10T08:06:24.570Z,4120
2017-10-10T08:07:25.344Z,4776
2017-10-10T08:08:26.209Z,4748
2017-10-10T08:09:26.948Z,5096
2017-10-10T08:10:27.764Z,4088
2017-10-10T08:11:28.574Z,4444
2017-10-10T08:12:29.283Z,5392
2017-10-10T08:13:30.491Z,4968
2017-10-10T08:14:31.242Z,5132
2017-10-10T08:15:31.979Z,5372
2017-10-10T08:16:32.716Z,6532
2017-10-10T08:17:33.451Z,5264
2017-10-10T08:18:34.193Z,4992
2017-10-10T08:19:34.934Z,5288
2017-10-10T08:20:35.669Z,4900
2017-10-10T08:21:36.464Z,4196
2017-10-10T08:22:37.263Z,4696
2017-10-10T08:23:38.323Z,4940
2017-10-10T08:24:39.052Z,5968
2017-10-10T08:25:39.783Z,5912
2017-10-10T08:26:40.574Z,5252
2017-10-10T08:27:41.304Z,4840
2017-10-10T08:28:42.032Z,4564
2017-10-10T08:29:42.845Z,4500
2017-10-10T08:30:43.634Z,3748
2017-10-10T08:31:44.365Z,3876
2017-10-10T08:32:45.111Z,3956
2017-10-10T08:33:45.893Z,3460
2017-10-10T08:34:46.669Z,3384
2017-10-10T08:35:47.403Z,2712
2017-10-10T08:36:48.203Z,3312
2017-10-10T08:37:48.933Z,4004
2017-10-10T08:38:49.661Z,4020
2017-10-10T08:39:50.582Z,4776
2017-10-10T08:40:51.313Z,4488
2017-10-10T08:41:52.049Z,5116
2017-10-10T08:42:52.788Z,4472
2017-10-10T08:43:53.532Z,4560
2017-10-10T08:44:54.667Z,4180
2017-10-10T08:45:55.413Z,3664
2017-10-10T08:46:56.148Z,4124
2017-10-10T08:47:56.887Z,4140
2017-10-10T08:48:57.661Z,3732
2017-10-10T08:49:58.491Z,3624
2017-10-10T08:50:59.219Z,3844
2017-10-10T08:51:59.939Z,4244
2017-10-10T08:53:00.680Z,4060
2017-10-10T08:54:01.454Z,4244
2017-10-10T08:55:02.616Z,5288
2017-10-10T08:56:03.358Z,6304
2017-10-10T08:57:04.092Z,5904
2017-10-10T08:58:04.834Z,5156
2017-10-10T08:59:05.615Z,4584
2017-10-10T09:00:06.413Z,3468
2017-10-10T09:01:07.193Z,2604
2017-10-10T09:02:07.924Z,2600
2017-10-10T09:03:08.663Z,2888
2017-10-10T09:04:09.405Z,2516
2017-10-10T09:05:10.234Z,2700
2017-10-10T09:06:10.963Z,3508
2017-10-10T09:07:11.697Z,3696
2017-10-10T09:08:12.432Z,3320
2017-10-10T09:09:13.247Z,4588
2017-10-10T09:10:13.987Z,4408
2017-10-10T09:11:14.725Z,4424
2017-10-10T09:12:15.901Z,4464
2017-10-10T09:13:16.721Z,5600
2017-10-10T09:14:17.450Z,4772
2017-10-10T09:15:18.267Z,4768
2017-10-10T09:16:19.006Z,4988
2017-10-10T09:17:20.175Z,5264
2017-10-10T09:18:20.967Z,5428
2017-10-10T09:19:21.761Z,5772
2017-10-10T09:20:22.499Z,6320
2017-10-10T09:21:23.235Z,6356
2017-10-10T09:22:24.453Z,8000
2017-10-10T09:23:25.198Z,8532
2017-10-10T09:24:25.996Z,7132
2017-10-10T09:25:26.787Z,5472
2017-10-10T09:26:27.553Z,4684
2017-10-10T09:27:28.331Z,5968
2017-10-10T09:28:29.428Z,7112
2017-10-10T09:29:30.169Z,8948
2017-10-10T09:30:30.906Z,7336
2017-10-10T09:31:31.644Z,5376
2017-10-10T09:32:32.428Z,5888
2017-10-10T09:33:33.512Z,6916
2017-10-10T09:34:34.292Z,4324
2017-10-10T09:35:35.087Z,5992
2017-10-10T09:36:35.820Z,5272
2017-10-10T09:37:36.550Z,4440
2017-10-10T09:38:37.639Z,2488
2017-10-10T09:39:38.380Z,2796
2017-10-10T09:40:39.118Z,3812
2017-10-10T09:41:39.910Z,4244
2017-10-10T09:42:40.695Z,3132
2017-10-10T09:43:41.867Z,3596
2017-10-10T09:44:42.611Z,3476
2017-10-10T09:45:43.369Z,3228
2017-10-10T09:46:44.114Z,3772
2017-10-10T09:47:44.919Z,2912
2017-10-10T09:48:46.130Z,5912
2017-10-10T09:49:46.873Z,6464
2017-10-10T09:50:47.684Z,6380
2017-10-10T09:51:48.471Z,6876
2017-10-10T09:52:49.212Z,10016
2017-10-10T09:53:50.316Z,8932
2017-10-10T09:54:51.051Z,6540
2017-10-10T09:55:51.809Z,5676
2017-10-10T09:56:52.636Z,8568
2017-10-10T09:57:53.378Z,9452
2017-10-10T09:58:54.512Z,7552
2017-10-10T09:59:55.280Z,8620
2017-10-10T10:00:56.012Z,9800
2017-10-10T10:01:56.766Z,13004
2017-10-10T10:02:57.499Z,11320
2017-10-10T10:03:58.334Z,9516
2017-10-10T10:04:59.067Z,8032
2017-10-10T10:05:59.800Z,6956
2017-10-10T10:07:00.534Z,5124
2017-10-10T10:08:01.275Z,7800
2017-10-10T10:09:02.109Z,9440
2017-10-10T10:10:02.901Z,6268
2017-10-10T10:11:03.709Z,8768
2017-10-10T10:12:04.444Z,12392
2017-10-10T10:13:05.259Z,14684
2017-10-10T10:14:06.407Z,13588
2017-10-10T10:15:07.077Z,10756
2017-10-10T10:16:07.824Z,11720
2017-10-10T10:17:08.555Z,15480
2017-10-10T10:18:09.307Z,17684
2017-10-10T10:19:10.469Z,14952
2017-10-10T10:20:11.220Z,10420
2017-10-10T10:21:11.958Z,10680
2017-10-10T10:22:12.684Z,12552
2017-10-10T10:23:13.432Z,10064
2017-10-10T10:24:14.278Z,8852
2017-10-10T10:25:15.060Z,10656
2017-10-10T10:26:15.804Z,11824
2017-10-10T10:27:16.635Z,9972
2017-10-10T10:28:17.416Z,13456
2017-10-10T10:29:18.559Z,14760
2017-10-10T10:30:19.297Z,12520
2017-10-10T10:31:20.039Z,10936
2017-10-10T10:32:20.779Z,10464
2017-10-10T10:33:21.591Z,10356
2017-10-10T10:34:22.495Z,10988
2017-10-10T10:35:23.237Z,13112
2017-10-10T10:36:24.060Z,18624
2017-10-10T10:37:24.786Z,16964
2017-10-10T10:38:25.612Z,12624
2017-10-10T10:39:26.831Z,12632
2017-10-10T10:40:27.576Z,9972
2017-10-10T10:41:28.359Z,11332
2017-10-10T10:42:29.184Z,13016
2017-10-10T10:43:29.963Z,8180
2017-10-10T10:44:30.746Z,11752
2017-10-10T10:45:31.570Z,17280
2017-10-10T10:46:32.395Z,13196
2017-10-10T10:47:33.180Z,11568
2017-10-10T10:48:33.921Z,13924
2017-10-10T10:49:34.713Z,12724
2017-10-10T10:50:35.522Z,10584
2017-10-10T10:51:36.345Z,10032
2017-10-10T10:52:37.091Z,9828
2017-10-10T10:53:37.830Z,8284
2017-10-10T10:54:39.040Z,11552
2017-10-10T10:55:39.790Z,15008
2017-10-10T10:56:40.540Z,16624
2017-10-10T10:57:41.276Z,16144
2017-10-10T10:58:42.009Z,16760
2017-10-10T10:59:43.169Z,17548
2017-10-10T11:00:43.921Z,18272
2017-10-10T11:01:44.730Z,17620
2017-10-10T11:02:45.465Z,18368
2017-10-10T11:03:46.246Z,19584
2017-10-10T11:04:47.329Z,19040
2017-10-10T11:05:48.061Z,18912
2017-10-10T11:06:48.785Z,17168
2017-10-10T11:07:49.531Z,15284
2017-10-10T11:08:50.276Z,15712
2017-10-10T11:09:51.007Z,15480
2017-10-10T11:10:51.741Z,16416
2017-10-10T11:11:52.470Z,17568
2017-10-10T11:12:53.211Z,19264
2017-10-10T11:13:54.303Z,22944
2017-10-10T11:14:55.118Z,26528
2017-10-10T11:15:55.888Z,25920
2017-10-10T11:16:56.630Z,24992
2017-10-10T11:17:57.375Z,26080
2017-10-10T11:18:58.519Z,23808
2017-10-10T11:19:59.260Z,21728
2017-10-10T11:21:00.000Z,16720
2017-10-10T11:22:00.799Z,16348
2017-10-10T11:23:01.584Z,21344
2017-10-10T11:24:02.391Z,20608
2017-10-10T11:25:03.108Z,20448
2017-10-10T11:26:04.200Z,25376
2017-10-10T11:27:04.943Z,31392
2017-10-10T11:28:05.680Z,28032
2017-10-10T11:29:06.501Z,25536
2017-10-10T11:30:07.240Z,21216
2017-10-10T11:31:08.437Z,16380
2017-10-10T11:32:09.629Z,16252
2017-10-10T11:33:10.575Z,13916
2017-10-10T11:34:12.388Z,14380
2017-10-10T11:35:13.471Z,24384
2017-10-10T11:36:14.627Z,24800
2017-10-10T11:37:15.368Z,21984
2017-10-10T11:38:16.135Z,26784
2017-10-10T11:39:16.958Z,26784
2017-10-10T11:40:17.707Z,28768
2017-10-10T11:41:18.494Z,25536
2017-10-10T11:42:19.314Z,28608
2017-10-10T11:44:34.831Z,25984
2017-10-10T11:45:35.521Z,31136
2017-10-10T11:46:36.611Z,37632
2017-10-10T11:47:37.440Z,32192
2017-10-10T11:48:38.233Z,28000
2017-10-10T11:49:38.975Z,26432
2017-10-10T11:50:39.792Z,18784
2017-10-10T11:51:40.932Z,16184
2017-10-10T11:52:41.680Z,17456
2017-10-10T11:53:42.480Z,14240
2017-10-10T11:54:43.270Z,8444
2017-10-10T11:55:44.015Z,6456
2017-10-10T11:56:45.049Z,5280
2017-10-10T11:57:45.784Z,6472
2017-10-10T11:58:46.597Z,9928
2017-10-10T11:59:47.362Z,11572
2017-10-10T12:00:48.185Z,10620
2017-10-10T12:01:49.276Z,12504
2017-10-10T12:02:50.090Z,17312
2017-10-10T12:03:50.829Z,17984
2017-10-10T12:04:51.569Z,12720
2017-10-10T12:05:52.384Z,8696
2017-10-10T12:06:53.219Z,10456
2017-10-10T12:07:54.114Z,14444
2017-10-10T12:08:54.849Z,16200
2017-10-10T12:09:55.594Z,18784
2017-10-10T12:10:56.333Z,19200
2017-10-10T12:11:57.393Z,20800
2017-10-10T12:12:58.069Z,22464
2017-10-10T12:13:58.804Z,23616
2017-10-10T12:14:59.525Z,24160
2017-10-10T12:16:00.329Z,21888
2017-10-10T12:17:01.180Z,21760
2017-10-10T12:18:01.925Z,21632
2017-10-10T12:19:02.672Z,19360
2017-10-10T12:20:03.456Z,16624
2017-10-10T12:21:04.196Z,14980
2017-10-10T12:22:05.294Z,14192
2017-10-10T12:23:06.044Z,12928
2017-10-10T12:24:06.844Z,12128
2017-10-10T12:25:07.595Z,14516
2017-10-10T12:26:08.336Z,15736
2017-10-10T12:27:09.480Z,15108
2017-10-10T12:28:10.225Z,15348
2017-10-10T12:29:11.041Z,13224
2017-10-10T12:30:11.771Z,13092
2017-10-10T12:31:12.508Z,15560
2017-10-10T12:32:13.690Z,16796
2017-10-10T12:33:14.438Z,13744
2017-10-10T12:34:15.240Z,9512
2017-10-10T12:35:15.985Z,9784
2017-10-10T12:36:16.724Z,12012
2017-10-10T12:37:17.534Z,9832
2017-10-10T12:38:18.348Z,9092
2017-10-10T12:39:20.141Z,7884
2017-10-10T12:40:21.182Z,5284
2017-10-10T12:41:21.972Z,4460
2017-10-10T12:42:22.764Z,5164
2017-10-10T12:43:23.799Z,7664
2017-10-10T12:44:24.592Z,8988
2017-10-10T12:45:25.329Z,7000
2017-10-10T12:46:26.084Z,7848
2017-10-10T12:47:26.839Z,11244
2017-10-10T12:48:27.925Z,13132
2017-10-10T12:49:28.707Z,12468
2017-10-10T12:50:29.459Z,11684
2017-10-10T12:51:30.183Z,12448
2017-10-10T12:52:30.954Z,13468
2017-10-10T12:53:31.987Z,13736
2017-10-10T12:54:32.815Z,13168
2017-10-10T12:55:33.851Z,13520
2017-10-10T12:56:34.541Z,15316
2017-10-10T12:57:35.359Z,17452
2017-10-10T12:58:36.165Z,19296
2017-10-10T12:59:36.916Z,19232
2017-10-10T13:00:37.694Z,18592
2017-10-10T13:01:38.706Z,17356
2017-10-10T13:02:39.421Z,16320
2017-10-10T13:03:40.551Z,14080
2017-10-10T13:04:41.321Z,13164
2017-10-10T13:05:42.133Z,18496
2017-10-10T13:06:42.941Z,20480
2017-10-10T13:07:43.749Z,16568
2017-10-10T13:08:44.914Z,12248
2017-10-10T13:09:45.729Z,20288
2017-10-10T13:10:46.541Z,19872
2017-10-10T13:11:47.275Z,18272
2017-10-10T13:12:48.063Z,16444
2017-10-10T13:13:49.163Z,14180
2017-10-10T13:14:49.966Z,14708
2017-10-10T13:15:50.783Z,15336
2017-10-10T13:16:51.513Z,12460
2017-10-10T13:17:52.313Z,8476
2017-10-10T13:18:53.045Z,5680
2017-10-10T13:19:53.945Z,4804
2017-10-10T13:20:54.778Z,5048
2017-10-10T13:21:55.577Z,5532
2017-10-10T13:22:56.319Z,5428
2017-10-10T13:23:57.132Z,5676
2017-10-10T13:24:58.289Z,5848
2017-10-10T13:25:59.075Z,4600
2017-10-10T13:26:59.804Z,4536
2017-10-10T13:28:00.538Z,6156
2017-10-10T13:29:01.289Z,6344
2017-10-10T13:30:02.163Z,6924
2017-10-10T13:31:02.913Z,6152
2017-10-10T13:32:03.723Z,4608
2017-10-10T13:33:04.460Z,4528
2017-10-10T13:34:05.188Z,5096
2017-10-10T13:35:06.275Z,5876
2017-10-10T13:36:07.089Z,5824
2017-10-10T13:37:07.829Z,6544
2017-10-10T13:38:08.630Z,7344
2017-10-10T13:39:09.446Z,6420
2017-10-10T13:40:10.551Z,5828
2017-10-10T13:41:11.331Z,6608
2017-10-10T13:42:12.072Z,6712
2017-10-10T13:43:12.808Z,7300
2017-10-10T13:44:13.539Z,6604
2017-10-10T13:45:14.715Z,6624
2017-10-10T13:46:15.508Z,6704
2017-10-10T13:47:16.300Z,7076
2017-10-10T13:48:17.042Z,6984
2017-10-10T13:49:17.851Z,7084
2017-10-10T13:50:18.688Z,6732
2017-10-10T13:51:19.433Z,6172
2017-10-10T13:52:20.243Z,6324
2017-10-10T13:53:20.996Z,7140
2017-10-10T13:54:21.738Z,7708
2017-10-10T13:55:22.937Z,8064
2017-10-10T13:56:23.685Z,11052
2017-10-10T13:57:24.502Z,13320
2017-10-10T13:58:25.285Z,12688
2017-10-10T13:59:26.004Z,12704
2017-10-10T14:00:27.083Z,12344